Time;durP1;ratioP1;P1;durP2;ratioP2;P2;SDS_P1;SDS_P2;PMS_P1;PMS_P2;Temp;Humidity;BMP_temperature;BMP_pressure;BME280_temperature;BME280_humidity;BME280_pressure;Samples;Min_cycle;Max_cycle;Signal;HPM_P1;HPM_P2
2022/01/23 00:00:58;;;;;;;5.80;3.60;;;;;;;22.73;28.25;101290.60;102615;1328;75942;-85
2022/01/23 00:03:34;;;;;;;5.10;3.30;;;;;;;22.74;28.22;101287.84;102584;1329;61533;-85
2022/01/23 00:06:37;;;;;;;6.10;3.20;;;;;;;22.74;28.19;101288.54;102794;1319;61328;-82
2022/01/23 00:09:16;;;;;;;5.70;3.20;;;;;;;22.74;28.23;101291.79;103382;1319;72736;-86
2022/01/23 00:12:09;;;;;;;6.00;3.40;;;;;;;22.75;28.19;101298.54;103367;1319;74870;-82
2022/01/23 00:18:30;;;;;;;5.60;3.30;;;;;;;22.73;28.33;101304.21;102977;1322;61545;-87
2022/01/23 00:21:17;;;;;;;5.00;3.20;;;;;;;22.74;28.24;101309.91;103045;1322;72974;-85
2022/01/23 00:33:14;;;;;;;5.30;3.20;;;;;;;22.73;28.33;101306.36;103159;1322;71629;-82
2022/01/23 00:36:08;;;;;;;4.90;3.30;;;;;;;22.74;28.21;101312.23;103066;1322;75809;-85
2022/01/23 00:38:45;;;;;;;4.90;3.00;;;;;;;22.74;28.19;101321.59;103184;1322;61204;-81
2022/01/23 00:41:43;;;;;;;5.40;3.30;;;;;;;22.74;28.13;101323.89;103110;1322;61547;-86
2022/01/23 00:44:17;;;;;;;5.10;3.10;;;;;;;22.74;28.12;101325.73;103177;1322;73013;-83
2022/01/23 00:47:10;;;;;;;4.80;3.50;;;;;;;22.74;28.23;101327.33;103137;1322;74212;-85
2022/01/23 00:49:59;;;;;;;7.00;3.50;;;;;;;22.74;28.24;101326.78;102987;1323;61629;-82
2022/01/23 00:52:25;;;;;;;5.90;3.40;;;;;;;22.74;28.18;101329.48;103432;1314;61315;-84
2022/01/23 00:55:59;;;;;;;5.80;3.50;;;;;;;22.73;28.09;101326.28;104151;1313;74200;-83
2022/01/23 00:58:21;;;;;;;4.90;3.40;;;;;;;22.73;28.13;101326.09;103880;1316;74892;-82
2022/01/23 01:01:45;;;;;;;;;;;;;;;;;;;;;
2022/01/23 01:04:19;;;;;;;5.00;3.00;;;;;;;22.73;28.04;101318.23;104190;1313;61179;-84
2022/01/23 01:07:17;;;;;;;5.40;3.30;;;;;;;22.74;28.27;101318.18;104169;1313;72804;-78
2022/01/23 01:10:11;;;;;;;4.40;3.10;;;;;;;22.74;28.24;101317.40;103359;1314;75018;-79
2022/01/23 01:12:58;;;;;;;;;;;;;;;;;;;;;
2022/01/23 01:32:04;;;;;;;6.60;3.20;;;;;;;22.73;28.16;101322.40;103873;1316;75558;-86
2022/01/23 01:35:00;;;;;;;;;;;;;;;;;;;;;
2022/01/23 01:37:46;;;;;;;4.80;3.20;;;;;;;22.73;28.15;101323.25;103333;1319;61579;-85
2022/01/23 01:40:33;;;;;;;5.80;3.30;;;;;;;22.74;28.11;101327.00;103875;1317;61406;-84
2022/01/23 01:43:23;;;;;;;5.70;3.20;;;;;;;22.74;28.13;101330.03;103905;1317;73735;-84
2022/01/23 01:46:01;;;;;;;4.80;3.10;;;;;;;22.73;28.05;101326.82;103499;1318;74903;-83
2022/01/23 01:48:47;;;;;;;5.80;3.10;;;;;;;22.73;28.09;101323.25;104243;1312;61448;-83
2022/01/23 01:51:31;;;;;;;4.70;3.10;;;;;;;22.74;28.10;101328.25;104348;1311;61411;-83
2022/01/23 01:54:37;;;;;;;5.50;3.10;;;;;;;22.72;28.09;101324.20;104293;1311;71506;-82
2022/01/23 01:57:38;;;;;;;4.50;3.00;;;;;;;22.73;28.06;101326.48;104323;1311;74759;-88
2022/01/23 02:10:03;;;;;;;4.80;3.30;;;;;;;22.72;28.02;101323.84;104120;1312;75872;-82
2022/01/23 02:14:08;;;;;;;4.40;3.00;;;;;;;22.73;27.95;101323.77;104326;1313;61130;-82
2022/01/23 02:23:00;;;;;;;4.80;3.30;;;;;;;22.72;28.09;101326.02;102962;1324;77337;-81
2022/01/23 02:58:08;;;;;;;5.30;3.40;;;;;;;22.72;28.09;101329.23;102505;1330;71620;-82
2022/01/23 03:03:58;;;;;;;5.20;3.40;;;;;;;22.73;28.20;101333.48;103284;1322;61179;-89
2022/01/23 03:06:58;;;;;;;6.60;3.40;;;;;;;22.73;28.12;101336.20;103286;1322;61352;-85
2022/01/23 03:09:59;;;;;;;6.10;3.50;;;;;;;22.73;28.07;101341.75;103222;1322;73083;-81
2022/01/23 03:32:20;;;;;;;6.00;3.90;;;;;;;22.72;28.03;101352.77;104389;1310;61383;-84
2022/01/23 03:34:49;;;;;;;6.60;4.20;;;;;;;22.72;27.95;101349.53;104416;1311;71874;-83
2022/01/23 03:37:44;;;;;;;;;;;;;;;22.72;28.04;101352.40;103861;1316;72480;-87
2022/01/23 03:40:43;;;;;;;6.20;4.20;;;;;;;22.70;28.06;101359.73;103766;1316;61239;-84
2022/01/23 03:43:27;;;;;;;7.10;4.60;;;;;;;22.71;27.90;101365.92;103955;1315;61277;-83
2022/01/23 03:46:19;;;;;;;;;;;;;;;;;;;;;
2022/01/23 03:51:54;;;;;;;7.20;5.10;;;;;;;22.72;28.01;101369.47;103739;1316;61622;-85
2022/01/23 03:54:52;;;;;;;7.90;5.00;;;;;;;22.72;27.96;101374.98;103744;1316;61222;-85
2022/01/23 03:57:32;;;;;;;8.60;5.50;;;;;;;22.71;27.95;101367.69;103735;1317;72798;-86
2022/01/23 04:00:26;;;;;;;8.30;4.70;;;;;;;22.72;28.01;101370.71;103954;1316;74714;-81
2022/01/23 04:03:01;;;;;;;7.40;5.00;;;;;;;22.72;28.01;101375.35;103890;1314;61576;-80
2022/01/23 04:05:54;;;;;;;8.10;5.30;;;;;;;22.72;28.04;101368.55;103900;1317;61327;-84
2022/01/23 04:08:40;;;;;;;7.80;5.10;;;;;;;22.71;28.00;101367.15;103208;1322;71714;-81
2022/01/23 04:11:32;;;;;;;7.70;5.30;;;;;;;22.71;28.15;101368.40;103372;1317;74926;-82
2022/01/23 04:14:23;;;;;;;8.40;5.60;;;;;;;22.72;28.23;101368.04;103411;1318;61330;-87
2022/01/23 04:32:58;;;;;;;7.00;4.80;;;;;;;22.72;28.15;101377.88;103634;1318;73942;-84
2022/01/23 04:45:17;;;;;;;7.70;5.40;;;;;;;22.72;28.20;101377.51;103194;1323;74949;-82
2022/01/23 04:45:31;;;;;;;7.20;4.90;;;;;;;22.72;28.14;101382.88;103016;1317;73004;-85
2022/01/23 04:48:53;;;;;;;8.50;4.90;;;;;;;22.72;28.13;101391.69;103850;1316;75652;-82
2022/01/23 05:01:03;;;;;;;7.10;4.90;;;;;;;22.73;28.28;101408.71;103121;1319;74884;-86
2022/01/23 05:07:29;;;;;;;;;;;;;;;;;;;;;
2022/01/23 05:10:18;;;;;;;9.30;5.90;;;;;;;22.73;28.25;101423.58;103661;1319;73953;-83
2022/01/23 05:13:06;;;;;;;9.00;5.80;;;;;;;22.73;28.02;101425.38;103931;1313;75939;-87
2022/01/23 05:15:44;;;;;;;10.40;5.80;;;;;;;22.73;28.10;101428.96;104181;1313;61453;-83
2022/01/23 05:18:36;;;;;;;8.70;5.70;;;;;;;22.73;28.05;101423.70;104208;1313;61460;-83
2022/01/23 05:24:37;;;;;;;;;;;;;;;;;;;;;
2022/01/23 05:27:35;;;;;;;8.90;5.70;;;;;;;22.72;28.18;101429.18;104240;1313;61570;-81
2022/01/23 05:30:22;;;;;;;7.80;5.60;;;;;;;22.73;27.96;101426.11;104204;1313;61320;-83
2022/01/23 05:33:03;;;;;;;8.40;5.90;;;;;;;22.73;28.03;101420.54;104259;1313;73691;-83
2022/01/23 05:35:32;;;;;;;9.20;5.80;;;;;;;22.73;28.07;101420.31;104471;1306;74881;-88
2022/01/23 05:38:27;;;;;;;9.80;6.10;;;;;;;22.73;27.93;101416.91;104759;1305;61219;-83
2022/01/23 05:41:16;;;;;;;8.00;5.70;;;;;;;22.73;28.08;101426.80;104199;1313;61552;-82
2022/01/23 05:44:02;;;;;;;9.40;5.80;;;;;;;22.73;28.08;101425.73;104218;1313;72157;-79
2022/01/23 05:46:58;;;;;;;9.80;6.10;;;;;;;22.72;28.11;101426.30;104272;1313;74765;-84
2022/01/23 05:49:31;;;;;;;8.50;5.90;;;;;;;22.72;28.25;101425.44;104150;1316;61631;-86
2022/01/23 05:52:23;;;;;;;8.60;5.50;;;;;;;22.72;28.06;101421.83;104221;1313;61213;-86
2022/01/23 05:55:09;;;;;;;8.50;5.40;;;;;;;22.73;28.04;101423.59;104291;1313;73080;-81
2022/01/23 05:58:05;;;;;;;8.30;5.70;;;;;;;22.73;28.04;101426.28;104259;1313;75789;-83
2022/01/23 06:00:56;;;;;;;7.30;5.20;;;;;;;22.72;28.04;101420.55;104266;1313;60380;-82
2022/01/23 06:03:41;;;;;;;8.10;5.70;;;;;;;22.73;28.26;101419.80;103863;1316;61472;-84
2022/01/23 06:06:33;;;;;;;8.70;6.10;;;;;;;22.73;28.04;101418.50;103854;1317;74029;-84
2022/01/23 06:09:20;;;;;;;8.50;5.50;;;;;;;22.73;28.09;101420.87;103136;1323;75861;-88
2022/01/23 06:12:10;;;;;;;9.20;5.90;;;;;;;22.73;27.99;101422.12;103157;1321;61408;-85
2022/01/23 06:14:50;;;;;;;10.20;5.80;;;;;;;22.73;28.17;101422.09;103145;1321;61605;-83
2022/01/23 06:17:25;;;;;;;8.60;5.80;;;;;;;22.74;28.19;101427.27;103004;1320;72911;-85
2022/01/23 06:20:01;;;;;;;9.20;5.80;;;;;;;22.74;28.09;101430.85;103774;1319;75968;-82
2022/01/23 06:22:48;;;;;;;8.40;5.80;;;;;;;22.74;28.09;101432.23;103462;1319;61579;-83
2022/01/23 06:25:32;;;;;;;7.80;5.60;;;;;;;22.75;28.12;101441.91;103723;1318;61454;-83
2022/01/23 06:28:33;;;;;;;8.60;5.80;;;;;;;22.74;28.05;101441.23;103684;1319;73764;-78
2022/01/23 06:31:15;;;;;;;8.50;6.10;;;;;;;22.74;28.11;101448.05;103748;1317;75679;-83
2022/01/23 06:34:09;;;;;;;;;;;;;;;;;;;;;
2022/01/23 06:37:06;;;;;;;8.70;5.80;;;;;;;22.75;27.98;101441.02;104024;1317;61531;-81
2022/01/23 06:39:47;;;;;;;7.70;5.20;;;;;;;22.75;28.08;101435.05;103331;1320;73230;-82
2022/01/23 06:42:44;;;;;;;;;;;;;;;;;;;;;
2022/01/23 06:45:25;;;;;;;9.90;5.80;;;;;;;22.76;28.16;101434.29;103126;1323;61557;-83
2022/01/23 06:48:16;;;;;;;8.10;5.60;;;;;;;22.76;28.11;101430.54;103791;1320;61926;-86
2022/01/23 06:50:50;;;;;;;7.60;5.50;;;;;;;22.77;28.08;101428.85;103642;1319;72877;-85
2022/01/23 06:53:19;;;;;;;8.90;5.60;;;;;;;22.78;28.07;101426.14;103786;1316;74711;-80
2022/01/23 06:55:58;;;;;;;8.40;5.50;;;;;;;22.78;28.01;101423.95;103689;1319;61231;-86
2022/01/23 06:58:44;;;;;;;9.50;5.90;;;;;;;22.78;28.24;101426.63;103476;1319;61229;-83
2022/01/23 07:01:21;;;;;;;7.60;5.60;;;;;;;22.77;28.10;101426.86;103713;1320;73917;-79
2022/01/23 07:03:54;;;;;;;8.60;5.90;;;;;;;22.78;27.99;101430.41;103703;1318;74643;-84
2022/01/23 07:06:46;;;;;;;8.80;4.90;;;;;;;22.79;27.96;101430.37;103756;1318;61794;-81
2022/01/23 07:09:34;;;;;;;8.00;5.30;;;;;;;22.79;28.04;101429.11;103772;1319;61556;-85
2022/01/23 07:12:20;;;;;;;8.70;5.50;;;;;;;22.79;28.17;101428.72;103298;1319;72313;-84
2022/01/23 07:14:49;;;;;;;7.00;5.30;;;;;;;22.79;28.04;101432.13;103666;1320;74923;-85
2022/01/23 07:17:34;;;;;;;9.80;6.00;;;;;;;22.80;28.00;101431.91;104042;1313;61766;-84
2022/01/23 07:20:20;;;;;;;8.00;5.40;;;;;;;22.80;28.10;101434.96;104046;1313;61207;-85
2022/01/23 07:22:57;;;;;;;7.60;5.30;;;;;;;22.80;28.06;101431.20;104076;1307;70954;-85
2022/01/23 07:25:51;;;;;;;7.70;5.50;;;;;;;22.80;27.88;101436.41;104681;1304;74679;-82
2022/01/23 07:28:44;;;;;;;9.20;5.40;;;;;;;22.80;27.96;101434.60;104652;1305;61209;-82
2022/01/23 07:34:29;;;;;;;6.40;5.00;;;;;;;22.80;27.96;101428.31;104306;1311;72690;-84
2022/01/23 07:37:25;;;;;;;8.20;5.50;;;;;;;22.80;28.03;101432.79;104286;1311;75793;-78
2022/01/23 07:40:12;;;;;;;7.20;5.10;;;;;;;22.80;28.02;101431.38;104298;1311;61232;-85
2022/01/23 07:42:55;;;;;;;;;;;;;;;;;;;;;
2022/01/23 07:45:33;;;;;;;7.60;5.50;;;;;;;22.80;28.12;101429.02;104295;1311;73868;-83
2022/01/23 07:48:02;;;;;;;9.50;5.60;;;;;;;22.80;28.05;101432.21;104223;1311;75728;-81
2022/01/23 07:50:48;;;;;;;7.90;5.20;;;;;;;22.80;28.23;101425.61;104289;1311;61534;-83
2022/01/23 07:53:27;;;;;;;6.70;5.10;;;;;;;22.80;28.13;101420.95;104272;1311;61162;-83
2022/01/23 07:56:12;;;;;;;7.20;5.10;;;;;;;22.80;28.25;101430.44;104287;1311;73809;-81
2022/01/23 07:58:58;;;;;;;7.40;5.00;;;;;;;22.80;28.08;101429.75;104305;1311;75747;-85
2022/01/23 08:01:44;;;;;;;;;;;;;;;;;;;;;
2022/01/23 08:04:33;;;;;;;9.00;5.20;;;;;;;22.81;28.03;101431.84;104178;1314;62057;-84
2022/01/23 08:07:31;;;;;;;8.40;4.80;;;;;;;22.80;28.19;101428.99;103744;1318;72891;-82
2022/01/23 08:10:21;;;;;;;7.30;5.00;;;;;;;22.81;28.19;101432.20;104000;1313;74710;-85
2022/01/23 08:12:47;;;;;;;6.70;5.00;;;;;;;22.80;28.18;101429.71;103914;1316;61428;-84
2022/01/23 08:15:53;;;;;;;7.10;5.00;;;;;;;22.81;28.13;101433.45;104183;1313;61345;-87
2022/01/23 08:18:31;;;;;;;;;;;;;;;;;;;;;
2022/01/23 08:21:33;;;;;;;;;;;;;;;;;;;;;
2022/01/23 08:24:05;;;;;;;7.40;4.70;;;;;;;22.81;28.22;101439.70;104171;1313;61189;-89
2022/01/23 08:26:49;;;;;;;7.20;4.50;;;;;;;22.80;28.15;101436.34;104189;1313;61439;-80
2022/01/23 08:29:40;;;;;;;7.10;4.60;;;;;;;22.80;28.22;101436.70;103356;1319;72084;-86
2022/01/23 08:32:15;;;;;;;6.90;4.80;;;;;;;22.81;28.39;101437.76;103251;1319;75859;-82
2022/01/23 08:34:54;;;;;;;6.10;4.60;;;;;;;22.81;28.34;101440.82;103399;1319;61977;-82
2022/01/23 08:37:49;;;;;;;6.40;4.20;;;;;;;22.80;28.18;101438.14;103213;1314;61549;-82
2022/01/23 08:40:59;;;;;;;5.90;4.30;;;;;;;22.81;28.16;101439.39;103516;1319;72873;-83
2022/01/23 08:43:27;;;;;;;6.70;4.70;;;;;;;22.80;28.36;101442.65;103636;1319;74727;-84
2022/01/23 08:46:05;;;;;;;6.60;4.50;;;;;;;22.81;28.27;101439.91;103397;1319;61391;-81
2022/01/23 08:48:56;;;;;;;6.90;4.40;;;;;;;22.81;28.33;101438.45;103447;1318;62282;-83
2022/01/23 08:51:41;;;;;;;;;;;;;;;;;;;;;
2022/01/23 08:54:30;;;;;;;6.50;4.80;;;;;;;22.81;28.31;101444.38;103347;1319;74865;-85
2022/01/23 08:57:36;;;;;;;8.50;4.90;;;;;;;22.81;28.31;101441.52;102939;1324;62460;-85
2022/01/23 09:00:22;;;;;;;7.40;4.90;;;;;;;22.81;28.15;101440.24;102963;1325;61221;-82
2022/01/23 09:03:13;;;;;;;6.00;4.40;;;;;;;22.82;28.29;101443.80;102487;1331;73357;-82
2022/01/23 09:05:41;;;;;;;7.00;4.90;;;;;;;22.82;28.28;101443.43;102485;1331;74876;-82
2022/01/23 09:08:36;;;;;;;7.90;5.00;;;;;;;22.82;28.35;101437.67;102602;1328;61846;-81
2022/01/23 09:11:25;;;;;;;6.90;4.60;;;;;;;22.82;28.33;101438.75;102399;1334;61306;-81
2022/01/23 09:14:11;;;;;;;7.50;4.50;;;;;;;22.82;28.38;101434.96;102397;1334;72917;-84
2022/01/23 09:16:57;;;;;;;6.10;4.20;;;;;;;22.82;28.37;101433.19;102393;1328;76480;-85
2022/01/23 09:19:46;;;;;;;6.20;4.30;;;;;;;22.82;28.32;101431.73;102444;1328;61800;-85
2022/01/23 09:22:24;;;;;;;6.30;4.30;;;;;;;22.82;28.34;101430.30;102661;1325;61595;-86
2022/01/23 09:25:12;;;;;;;6.70;4.10;;;;;;;22.82;28.38;101424.39;102691;1328;72853;-83
2022/01/23 09:28:00;;;;;;;6.20;4.10;;;;;;;22.82;28.30;101426.89;102585;1328;75882;-81
2022/01/23 09:30:51;;;;;;;7.40;4.10;;;;;;;22.83;28.36;101424.89;102429;1331;61335;-83
2022/01/23 09:33:48;;;;;;;6.40;3.90;;;;;;;22.82;28.34;101416.30;102229;1334;61521;-85
2022/01/23 09:36:27;;;;;;;7.30;4.20;;;;;;;22.82;28.45;101412.70;102689;1328;73915;-82
2022/01/23 09:39:17;;;;;;;;;;;;;;;;;;;;;
2022/01/23 09:42:11;;;;;;;5.60;4.00;;;;;;;22.82;28.43;101404.42;103091;1322;61718;-85
2022/01/23 09:44:48;;;;;;;5.20;3.70;;;;;;;22.83;28.37;101401.37;102600;1327;61470;-79
2022/01/23 09:47:32;;;;;;;5.10;3.60;;;;;;;22.83;28.38;101393.84;102672;1325;73684;-81
2022/01/23 09:50:18;;;;;;;5.80;4.20;;;;;;;22.83;28.52;101389.11;103508;1319;75893;-84
2022/01/23 09:53:11;;;;;;;6.50;3.90;;;;;;;22.84;28.48;101387.11;103552;1319;61072;-86
2022/01/23 09:56:08;;;;;;;5.90;3.80;;;;;;;22.84;28.22;101380.11;103308;1319;62131;-82
2022/01/23 09:58:55;;;;;;;5.10;3.80;;;;;;;22.85;28.28;101374.49;103402;1318;73903;-89
2022/01/23 10:01:40;;;;;;;;;;;;;;;;;;;;;
2022/01/23 10:04:32;;;;;;;5.40;3.70;;;;;;;22.85;28.26;101376.09;103291;1319;61104;-86
2022/01/23 10:07:07;;;;;;;5.80;3.80;;;;;;;22.85;28.42;101373.73;102789;1319;61268;-90
2022/01/23 10:09:53;;;;;;;5.60;3.70;;;;;;;22.84;28.33;101368.04;103390;1319;73652;-82
2022/01/23 10:12:40;;;;;;;5.70;3.90;;;;;;;22.84;28.40;101364.46;103000;1319;512308;-84
2022/01/23 10:15:27;;;;;;;5.20;3.30;;;;;;;22.85;28.41;101366.42;103101;1322;61707;-84
2022/01/23 10:18:12;;;;;;;7.20;3.90;;;;;;;22.85;28.14;101364.62;103408;1319;61460;-86
2022/01/23 10:21:00;;;;;;;5.20;3.50;;;;;;;22.85;28.42;101359.58;103369;1319;72882;-84
2022/01/23 10:23:45;;;;;;;5.40;3.90;;;;;;;22.85;28.36;101361.19;104253;1313;74940;-81
2022/01/23 10:26:49;;;;;;;7.50;3.90;;;;;;;22.85;28.38;101357.03;104190;1313;61988;-83
2022/01/23 10:29:43;;;;;;;5.30;3.80;;;;;;;22.85;28.44;101362.44;104146;1313;61288;-85
2022/01/23 10:32:45;;;;;;;;;;;;;;;;;;;;;
2022/01/23 10:35:29;;;;;;;6.50;4.00;;;;;;;22.85;28.48;101366.56;103034;1322;74830;-86
2022/01/23 10:38:23;;;;;;;7.20;4.20;;;;;;;22.86;28.49;101373.51;103080;1322;61233;-86
2022/01/23 10:48:23;;;;;;;5.80;4.00;;;;;;;22.86;28.38;101375.84;103766;1318;74032;-81
2022/01/23 10:50:35;;;;;;;6.20;3.90;;;;;;;22.86;28.42;101371.17;103410;1319;61316;-82
2022/01/23 10:53:14;;;;;;;5.80;3.90;;;;;;;22.86;28.51;101373.89;103473;1317;61482;-80
2022/01/23 10:55:52;;;;;;;6.90;3.80;;;;;;;22.86;28.50;101370.98;103695;1317;73394;-80
2022/01/23 10:58:26;;;;;;;5.30;3.80;;;;;;;22.86;28.43;101373.48;103442;1317;75821;-84
2022/01/23 11:01:05;;;;;;;5.80;3.80;;;;;;;22.88;28.32;101370.14;103893;1317;61319;-80
2022/01/23 11:04:23;;;;;;;6.10;4.20;;;;;;;22.87;28.43;101368.01;103899;1317;61204;-82
2022/01/23 11:07:15;;;;;;;6.50;4.30;;;;;;;22.88;28.45;101369.61;102873;1325;73957;-83
2022/01/23 11:09:55;;;;;;;5.90;4.10;;;;;;;22.88;28.40;101368.16;103108;1317;75514;-82
2022/01/23 11:12:43;;;;;;;7.00;4.00;;;;;;;22.88;28.52;101365.64;103386;1313;61317;-81
2022/01/23 11:18:44;;;;;;;6.10;4.30;;;;;;;22.88;28.45;101362.77;103149;1321;71572;-84
2022/01/23 11:21:39;;;;;;;;;;;;;;;;;;;;;
2022/01/23 11:24:16;;;;;;;6.70;4.30;;;;;;;22.89;28.47;101356.45;103347;1322;61400;-81
2022/01/23 11:26:57;;;;;;;;;;;;;;;;;;;;;
2022/01/23 11:29:44;;;;;;;5.60;3.90;;;;;;;22.89;28.59;101353.72;103099;1321;74446;-84
2022/01/23 11:32:36;;;;;;;6.30;4.40;;;;;;;22.89;28.60;101352.27;103257;1321;74710;-81
2022/01/23 11:35:26;;;;;;;7.10;4.80;;;;;;;22.90;28.41;101354.23;103295;1322;61255;-86
2022/01/23 11:38:04;;;;;;;6.60;4.10;;;;;;;22.89;28.55;101354.10;103357;1319;61208;-85
2022/01/23 11:56:57;;;;;;;7.40;4.30;;;;;;;22.88;28.54;101344.13;103895;1313;76085;-85
2022/01/23 11:59:47;;;;;;;6.00;4.10;;;;;;;22.88;28.56;101343.22;103945;1317;61332;-83
2022/01/23 12:02:42;;;;;;;;;;;;;;;;;;;;;
2022/01/23 12:05:39;;;;;;;;;;;;;;;;;;;;;
2022/01/23 12:08:31;;;;;;;5.80;3.90;;;;;;;22.89;28.54;101353.56;104010;1316;74696;-89
2022/01/23 12:11:56;;;;;;;5.60;3.90;;;;;;;22.89;28.48;101366.30;103958;1317;61290;-84
2022/01/23 12:17:48;;;;;;;6.10;4.00;;;;;;;22.88;28.56;101366.70;102704;1325;72906;-83
2022/01/23 12:20:36;;;;;;;5.70;3.80;;;;;;;22.88;28.56;101368.17;102750;1326;74306;-83
2022/01/23 12:23:18;;;;;;;6.30;4.30;;;;;;;22.89;28.59;101367.91;102748;1326;61365;-84
2022/01/23 12:25:58;;;;;;;7.40;4.10;;;;;;;22.89;28.65;101374.01;102740;1326;60399;-78
2022/01/23 12:28:36;;;;;;;6.40;4.00;;;;;;;22.90;28.53;101380.57;102823;1325;71650;-82
2022/01/23 12:31:41;;;;;;;6.20;3.90;;;;;;;22.90;28.50;101380.95;103319;1319;74648;-85
2022/01/23 12:34:41;;;;;;;6.50;3.80;;;;;;;22.90;28.49;101376.14;103431;1319;61454;-82
2022/01/23 12:37:16;;;;;;;5.60;3.90;;;;;;;22.89;28.54;101378.48;103410;1319;61403;-82
2022/01/23 12:40:43;;;;;;;5.30;4.00;;;;;;;22.89;28.54;101379.04;103380;1318;72938;-84
2022/01/23 12:43:27;;;;;;;;;;;;;;;;;;;;;
2022/01/23 12:46:19;;;;;;;5.30;3.90;;;;;;;22.89;28.55;101367.73;103275;1319;61611;-78
2022/01/23 12:48:47;;;;;;;5.30;3.50;;;;;;;22.88;28.61;101365.13;102870;1325;61198;-78
2022/01/23 12:51:38;;;;;;;5.50;3.70;;;;;;;22.88;28.69;101362.98;102768;1325;74044;-82
2022/01/23 12:54:28;;;;;;;5.20;3.60;;;;;;;22.88;28.53;101353.30;102554;1328;76410;-79
2022/01/23 12:57:43;;;;;;;5.20;3.60;;;;;;;22.87;28.47;101351.85;102363;1332;63618;-85
2022/01/23 13:00:42;;;;;;;5.50;3.90;;;;;;;22.87;28.50;101345.23;102392;1332;61344;-85
2022/01/23 13:03:24;;;;;;;5.50;3.50;;;;;;;22.88;28.52;101346.64;102384;1332;72964;-85
2022/01/23 13:06:11;;;;;;;6.10;3.70;;;;;;;22.88;28.60;101344.63;102393;1332;75615;-84
2022/01/23 13:09:11;;;;;;;4.80;3.40;;;;;;;22.89;28.58;101354.98;102356;1332;61341;-83
2022/01/23 13:12:15;;;;;;;5.40;3.50;;;;;;;22.89;28.53;101359.33;102419;1332;61366;-89
2022/01/23 13:31:48;;;;;;;6.00;3.40;;;;;;;22.88;28.66;101357.77;102025;1334;76090;-85
2022/01/23 13:34:45;;;;;;;5.90;4.00;;;;;;;22.88;28.66;101360.77;102331;1331;61652;-83
2022/01/23 13:37:47;;;;;;;5.20;3.50;;;;;;;22.88;28.62;101369.25;102787;1325;61797;-84
2022/01/23 13:41:19;;;;;;;;;;;;;;;;;;;;;
2022/01/23 14:02:56;;;;;;;5.90;4.10;;;;;;;22.91;28.53;101375.86;102041;1335;61556;-87
2022/01/23 14:05:42;;;;;;;6.30;4.00;;;;;;;22.90;28.51;101378.59;102024;1334;74235;-81
2022/01/23 14:08:28;;;;;;;6.40;3.90;;;;;;;22.91;28.57;101382.14;101918;1337;75428;-84
2022/01/23 14:11:16;;;;;;;5.70;3.80;;;;;;;22.92;28.62;101383.15;102080;1335;61349;-85
2022/01/23 14:14:22;;;;;;;5.70;3.90;;;;;;;22.91;28.57;101381.55;102040;1335;61344;-83
2022/01/23 14:17:10;;;;;;;5.90;3.70;;;;;;;22.91;28.52;101383.73;102109;1331;73782;-83
2022/01/23 14:20:24;;;;;;;6.50;3.80;;;;;;;22.92;28.59;101387.98;102389;1331;74741;-83
2022/01/23 14:23:10;;;;;;;6.50;3.70;;;;;;;22.92;28.54;101389.58;102439;1331;61447;-82
2022/01/23 14:25:47;;;;;;;5.80;3.90;;;;;;;22.93;28.58;101385.77;102693;1326;61400;-82
2022/01/23 14:28:47;;;;;;;7.70;4.00;;;;;;;22.93;28.75;101390.05;102687;1326;71666;-83
2022/01/23 14:31:36;;;;;;;;;;;;;;;;;;;;;
2022/01/23 14:34:24;;;;;;;5.40;3.70;;;;;;;22.93;28.67;101401.51;103922;1316;61505;-82
2022/01/23 14:37:24;;;;;;;5.50;3.70;;;;;;;22.95;28.54;101406.63;104527;1307;61293;-85
2022/01/23 14:40:27;;;;;;;5.90;3.80;;;;;;;22.95;28.52;101412.73;104633;1306;72904;-84
2022/01/23 14:43:06;;;;;;;5.00;3.50;;;;;;;22.95;28.58;101413.80;104634;1306;75994;-82
2022/01/23 14:45:50;;;;;;;5.00;3.40;;;;;;;22.96;28.42;101419.85;104520;1307;61288;-84
2022/01/23 14:48:21;;;;;;;6.50;4.30;;;;;;;22.95;28.41;101427.22;104419;1308;61197;-79
2022/01/23 14:51:02;;;;;;;5.40;3.80;;;;;;;22.97;28.50;101427.16;104615;1305;72794;-79
2022/01/23 14:53:38;;;;;;;6.10;3.50;;;;;;;22.97;28.47;101428.23;104586;1305;75657;-81
2022/01/23 14:56:24;;;;;;;6.00;4.10;;;;;;;22.97;28.52;101425.91;104815;1305;61321;-82
2022/01/23 14:59:18;;;;;;;5.30;3.60;;;;;;;22.96;28.42;101432.20;104756;1304;61202;-81
2022/01/23 15:01:53;;;;;;;6.20;4.20;;;;;;;22.97;28.53;101436.31;104628;1305;71984;-82
2022/01/23 15:04:31;;;;;;;6.10;4.10;;;;;;;22.97;28.57;101439.33;104485;1305;75933;-83
2022/01/23 15:07:14;;;;;;;5.00;3.70;;;;;;;22.97;28.49;101444.03;104783;1303;61518;-78
2022/01/23 15:09:57;;;;;;;;;;;;;;;;;;;;;
2022/01/23 15:12:46;;;;;;;5.70;3.80;;;;;;;22.97;28.56;101443.27;104872;1303;73974;-85
2022/01/23 15:15:40;;;;;;;6.10;3.70;;;;;;;22.96;28.53;101447.82;104818;1303;74567;-83
2022/01/23 15:18:26;;;;;;;5.20;3.70;;;;;;;22.97;28.37;101445.83;104834;1303;61248;-83
2022/01/23 15:21:06;;;;;;;6.00;4.00;;;;;;;22.96;28.45;101452.14;104516;1305;61379;-88
2022/01/23 15:23:41;;;;;;;5.80;4.00;;;;;;;22.97;28.46;101452.11;104835;1303;72566;-80
2022/01/23 15:26:50;;;;;;;5.50;3.90;;;;;;;22.97;28.51;101457.68;104766;1303;75026;-81
2022/01/23 15:29:21;;;;;;;6.10;4.10;;;;;;;22.97;28.54;101458.23;104849;1305;61169;-78
2022/01/23 15:32:11;;;;;;;6.20;4.10;;;;;;;22.97;28.50;101458.38;104761;1303;61190;-83
2022/01/23 15:34:42;;;;;;;6.50;3.80;;;;;;;22.96;28.51;101466.86;104826;1303;72882;-83
2022/01/23 15:37:20;;;;;;;6.30;3.90;;;;;;;22.96;28.51;101470.98;104894;1305;75639;-85
2022/01/23 15:40:19;;;;;;;7.20;4.20;;;;;;;22.96;28.70;101477.45;104782;1303;61238;-84
2022/01/23 15:42:51;;;;;;;6.30;4.20;;;;;;;22.96;28.41;101480.50;104861;1303;61330;-83
2022/01/23 15:45:27;;;;;;;7.10;3.60;;;;;;;22.96;28.47;101486.59;104548;1303;72905;-84
2022/01/23 15:48:05;;;;;;;7.20;3.90;;;;;;;22.97;28.50;101488.02;104793;1305;74597;-83
2022/01/23 15:50:42;;;;;;;6.70;3.90;;;;;;;22.96;28.58;101491.80;104653;1304;61196;-84
2022/01/23 15:53:23;;;;;;;6.00;3.90;;;;;;;22.96;28.44;101497.17;104788;1303;61209;-80
2022/01/23 15:56:07;;;;;;;7.10;4.30;;;;;;;22.97;28.49;101504.70;104770;1303;74067;-85
2022/01/23 15:58:33;;;;;;;6.50;4.20;;;;;;;22.96;28.37;101507.80;104816;1303;74682;-82
2022/01/23 16:01:15;;;;;;;7.60;4.10;;;;;;;22.95;28.32;101510.52;104777;1303;61293;-81
2022/01/23 16:03:50;;;;;;;6.80;3.90;;;;;;;22.95;28.52;101517.93;104806;1303;61390;-88
2022/01/23 16:06:41;;;;;;;6.10;3.70;;;;;;;22.95;28.58;101518.83;104823;1303;71494;-84
2022/01/23 16:09:17;;;;;;;5.20;3.80;;;;;;;22.93;28.56;101519.60;104651;1305;74851;-82
2022/01/23 16:12:10;;;;;;;6.50;3.90;;;;;;;22.94;28.62;101528.73;104894;1304;61307;-81
2022/01/23 16:14:48;;;;;;;7.00;4.30;;;;;;;22.94;28.56;101528.20;104877;1303;61386;-82
2022/01/23 16:18:04;;;;;;;5.50;3.80;;;;;;;22.94;28.68;101532.14;104853;1303;72920;-83
2022/01/23 16:20:30;;;;;;;7.10;4.60;;;;;;;22.93;28.46;101532.73;104637;1305;75771;-82
2022/01/23 16:23:05;;;;;;;6.80;4.70;;;;;;;22.93;28.44;101537.74;104456;1305;62489;-80
2022/01/23 16:25:40;;;;;;;5.70;4.10;;;;;;;22.93;28.49;101537.92;104362;1305;61676;-81
2022/01/23 16:28:09;;;;;;;6.90;4.30;;;;;;;22.94;28.49;101541.83;104402;1305;73723;-81
2022/01/23 16:31:08;;;;;;;7.00;4.60;;;;;;;22.94;28.35;101538.06;104457;1305;74686;-85
2022/01/23 16:33:53;;;;;;;;;;;;;;;22.93;28.45;101542.23;104667;1306;61152;-82
2022/01/23 16:36:39;;;;;;;8.00;4.60;;;;;;;22.91;28.51;101544.55;104823;1305;61499;-82
2022/01/23 16:39:17;;;;;;;6.70;4.70;;;;;;;22.92;28.48;101546.10;104597;1305;73939;-82
2022/01/23 16:41:52;;;;;;;8.20;5.10;;;;;;;22.92;28.50;101543.59;104794;1305;75917;-82
2022/01/23 16:44:20;;;;;;;6.90;4.90;;;;;;;22.92;28.46;101550.42;104631;1305;61212;-84
2022/01/23 16:47:11;;;;;;;8.50;5.20;;;;;;;22.92;28.45;101558.27;104551;1305;61376;-84
2022/01/23 16:49:58;;;;;;;7.30;5.00;;;;;;;22.93;28.40;101559.14;104658;1304;73232;-83
2022/01/23 16:52:23;;;;;;;7.90;5.00;;;;;;;22.91;28.60;101563.20;104544;1305;74846;-83
2022/01/23 16:55:00;;;;;;;7.70;5.20;;;;;;;22.92;28.48;101567.66;104385;1305;61744;-80